createdAt,value
2023-03-16T00:02:55.521Z,25.69
2023-03-16T00:06:55.534Z,25.67
2023-03-16T00:10:55.603Z,25.70
2023-03-16T00:14:55.709Z,25.60
2023-03-16T00:18:55.758Z,25.67
2023-03-16T00:22:55.887Z,25.62
2023-03-16T00:26:55.929Z,25.58
2023-03-16T00:30:56.010Z,25.67
2023-03-16T00:34:56.105Z,25.64
2023-03-16T00:38:56.165Z,25.63
2023-03-16T00:42:56.255Z,25.65
2023-03-16T00:46:56.296Z,25.61
2023-03-16T00:50:56.415Z,25.65
2023-03-16T00:54:56.525Z,25.64
2023-03-16T00:58:56.593Z,25.64
2023-03-16T01:02:56.727Z,25.67
2023-03-16T01:06:56.789Z,25.67
2023-03-16T01:10:56.889Z,25.65
2023-03-16T01:14:56.961Z,25.68
2023-03-16T01:18:57.110Z,25.59
2023-03-16T01:22:57.180Z,25.59
2023-03-16T01:26:57.314Z,25.54
2023-03-16T01:30:57.535Z,25.61
2023-03-16T01:34:57.519Z,25.59
2023-03-16T01:38:57.652Z,25.55
2023-03-16T01:42:57.694Z,25.52
2023-03-16T01:46:57.811Z,25.58
2023-03-16T01:50:57.900Z,25.55
2023-03-16T01:54:58.368Z,25.55
2023-03-16T01:58:58.109Z,25.52
2023-03-16T02:02:58.268Z,25.58
2023-03-16T02:06:58.358Z,25.51
2023-03-16T02:10:58.531Z,25.49
2023-03-16T02:14:58.595Z,25.52
2023-03-16T02:18:58.749Z,25.56
2023-03-16T02:22:58.835Z,25.54
2023-03-16T02:26:58.995Z,25.49
2023-03-16T02:30:59.200Z,25.49
2023-03-16T02:34:59.279Z,25.44
2023-03-16T02:38:59.395Z,25.49
2023-03-16T02:42:59.546Z,25.49
2023-03-16T02:46:59.679Z,25.46
2023-03-16T02:50:59.830Z,25.49
2023-03-16T02:54:59.996Z,25.43
2023-03-16T02:59:00.161Z,25.47
2023-03-16T03:03:00.363Z,25.44
2023-03-16T03:07:00.490Z,25.46
2023-03-16T03:11:00.623Z,25.46
2023-03-16T03:15:00.790Z,25.40
2023-03-16T03:19:00.893Z,25.43
2023-03-16T03:23:01.064Z,25.44
2023-03-16T03:27:01.186Z,25.44
2023-03-16T03:31:01.355Z,25.43
2023-03-16T03:35:01.560Z,25.44
2023-03-16T03:39:01.728Z,25.44
2023-03-16T03:43:01.881Z,25.40
2023-03-16T03:47:02.133Z,25.44
2023-03-16T03:51:02.234Z,25.44
2023-03-16T03:55:02.413Z,25.34
2023-03-16T03:59:02.581Z,25.37
2023-03-16T04:03:02.784Z,25.37
2023-03-16T04:07:02.916Z,25.35
2023-03-16T04:11:03.068Z,25.34
2023-03-16T04:15:03.232Z,25.35
2023-03-16T04:19:03.375Z,25.30
2023-03-16T04:23:03.534Z,25.34
2023-03-16T04:27:03.698Z,25.30
2023-03-16T04:31:03.893Z,25.34
2023-03-16T04:35:04.017Z,25.34
2023-03-16T04:39:04.147Z,25.31
2023-03-16T04:43:04.308Z,25.28
2023-03-16T04:47:04.469Z,25.20
2023-03-16T04:51:04.638Z,25.32
2023-03-16T04:55:04.782Z,25.23
2023-03-16T04:59:04.967Z,25.27
2023-03-16T05:03:05.120Z,25.25
2023-03-16T05:07:05.283Z,25.23
2023-03-16T05:11:05.431Z,25.25
2023-03-16T05:15:05.644Z,25.22
2023-03-16T05:19:05.826Z,25.23
2023-03-16T05:23:05.993Z,25.29
2023-03-16T05:27:06.168Z,25.25
2023-03-16T05:31:06.433Z,25.20
2023-03-16T05:35:06.536Z,25.14
2023-03-16T05:39:06.726Z,25.21
2023-03-16T05:43:06.909Z,25.12
2023-03-16T05:47:07.139Z,25.18
2023-03-16T05:51:07.276Z,25.22
2023-03-16T05:55:07.433Z,25.16
2023-03-16T05:59:07.584Z,25.21
2023-03-16T06:03:07.856Z,25.08
2023-03-16T06:07:07.919Z,25.15
2023-03-16T06:11:08.091Z,25.13
2023-03-16T06:15:08.246Z,25.05
2023-03-16T06:19:08.442Z,25.04
2023-03-16T06:23:08.620Z,25.01
2023-03-16T06:27:08.750Z,25.07
2023-03-16T06:31:08.977Z,25.00
2023-03-16T06:35:09.120Z,24.98
2023-03-16T06:39:09.415Z,25.79
2023-03-16T06:43:09.940Z,26.66
2023-03-16T06:47:09.569Z,27.12
2023-03-16T06:51:09.958Z,27.60
2023-03-16T06:55:09.947Z,28.49
2023-03-16T06:59:09.920Z,29.28
2023-03-16T07:03:09.601Z,30.01
2023-03-16T07:07:09.562Z,30.68
2023-03-16T07:11:09.967Z,31.24
2023-03-16T07:15:09.913Z,31.88
2023-03-16T07:19:09.940Z,32.14
2023-03-16T07:23:09.426Z,32.84
2023-03-16T07:27:11.422Z,33.22
2023-03-16T07:31:09.360Z,33.67
2023-03-16T07:35:09.321Z,34.08
2023-03-16T07:39:09.268Z,34.55
2023-03-16T07:43:09.455Z,31.42
2023-03-16T07:47:09.439Z,34.09
2023-03-16T07:51:09.430Z,33.85
2023-03-16T07:55:09.441Z,34.46
2023-03-16T07:59:09.105Z,34.94
2023-03-16T08:03:09.096Z,35.06
2023-03-16T08:07:09.029Z,35.36
2023-03-16T08:11:10.972Z,35.73
2023-03-16T08:15:08.941Z,36.11
2023-03-16T08:19:08.968Z,36.37
2023-03-16T08:23:09.451Z,36.66
2023-03-16T08:27:09.141Z,36.82
2023-03-16T08:31:09.359Z,37.10
2023-03-16T08:35:09.415Z,37.14
2023-03-16T08:39:12.002Z,37.06
2023-03-16T08:43:10.374Z,35.83
2023-03-16T08:47:10.002Z,26.87
2023-03-16T08:51:10.056Z,29.66
2023-03-16T08:55:10.016Z,31.48
2023-03-16T08:59:19.894Z,31.27
2023-03-16T09:03:10.940Z,31.17
2023-03-16T09:07:10.144Z,31.65
2023-03-16T09:11:09.855Z,32.29
2023-03-16T09:15:10.450Z,32.91
2023-03-16T09:19:10.061Z,33.51
2023-03-16T09:23:10.145Z,34.14
2023-03-16T09:27:10.219Z,34.44
2023-03-16T09:31:10.498Z,34.72
2023-03-16T09:35:10.275Z,35.15
2023-03-16T09:39:10.480Z,33.60
2023-03-16T09:43:10.366Z,33.18
2023-03-16T09:47:10.485Z,32.99
2023-03-16T09:51:11.030Z,33.17
2023-03-16T09:55:10.966Z,33.76
2023-03-16T09:59:10.640Z,33.39
2023-03-16T10:03:10.962Z,32.63
2023-03-16T10:07:10.996Z,32.32
2023-03-16T10:11:10.924Z,31.29
2023-03-16T10:15:11.581Z,32.01
2023-03-16T10:19:11.047Z,32.65
2023-03-16T10:23:11.142Z,32.89
2023-03-16T10:27:11.521Z,33.39
2023-03-16T10:31:11.139Z,33.83
2023-03-16T10:35:11.120Z,34.52
2023-03-16T10:39:11.178Z,35.33
2023-03-16T10:43:11.503Z,35.53
2023-03-16T10:47:11.612Z,33.31
2023-03-16T10:51:12.064Z,24.38
2023-03-16T10:55:11.719Z,21.10
2023-03-16T10:59:12.029Z,21.07
2023-03-16T11:03:12.042Z,23.69
2023-03-16T11:07:12.005Z,25.38
2023-03-16T11:11:11.950Z,26.22
2023-03-16T11:15:23.614Z,27.03
2023-03-16T11:19:12.877Z,27.88
2023-03-16T11:23:11.863Z,28.81
2023-03-16T11:27:11.853Z,29.32
2023-03-16T11:31:12.125Z,29.75
2023-03-16T11:35:12.090Z,30.12
2023-03-16T11:39:12.530Z,30.25
2023-03-16T11:43:12.238Z,30.57
2023-03-16T11:47:12.326Z,30.49
2023-03-16T11:51:12.529Z,30.14
2023-03-16T11:55:12.332Z,29.83
2023-03-16T11:59:12.403Z,29.26
2023-03-16T12:03:12.532Z,28.85
2023-03-16T12:07:12.570Z,28.54
2023-03-16T12:11:13.062Z,28.27
2023-03-16T12:15:12.718Z,27.94
2023-03-16T12:19:12.768Z,27.72
2023-03-16T12:23:12.840Z,27.33
2023-03-16T12:27:13.068Z,26.99
2023-03-16T12:31:13.062Z,26.84
2023-03-16T12:35:12.958Z,26.90
2023-03-16T12:39:13.063Z,26.89
2023-03-16T12:43:12.871Z,26.89
2023-03-16T12:47:13.053Z,26.96
2023-03-16T12:51:12.837Z,26.96
2023-03-16T12:55:12.851Z,26.94
2023-03-16T12:59:13.038Z,26.84
2023-03-16T13:03:13.082Z,26.72
2023-03-16T13:07:13.580Z,26.65
2023-03-16T13:11:13.437Z,26.58
2023-03-16T13:15:13.608Z,26.52
2023-03-16T13:19:13.579Z,26.48
2023-03-16T13:23:13.544Z,26.47
2023-03-16T13:27:13.538Z,26.42
2023-03-16T13:31:13.517Z,26.32
2023-03-16T13:35:13.457Z,26.25
2023-03-16T13:39:13.598Z,26.22
2023-03-16T13:43:13.396Z,26.15
2023-03-16T13:47:13.332Z,26.09
2023-03-16T13:51:13.637Z,26.08
2023-03-16T13:55:13.265Z,25.98
2023-03-16T13:59:13.222Z,26.00
2023-03-16T14:03:13.184Z,25.92
2023-03-16T14:07:13.594Z,25.88
2023-03-16T14:11:13.595Z,25.85
2023-03-16T14:15:13.603Z,25.87
2023-03-16T14:19:13.163Z,25.84
2023-03-16T14:23:13.083Z,25.88
2023-03-16T14:27:13.111Z,26.03
2023-03-16T14:31:13.347Z,26.02
2023-03-16T14:35:13.289Z,26.11
2023-03-16T14:39:13.370Z,26.19
2023-03-16T14:43:13.430Z,26.25
2023-03-16T14:47:13.654Z,26.27
2023-03-16T14:51:13.705Z,26.35
2023-03-16T14:55:14.128Z,26.37
2023-03-16T14:59:13.960Z,26.39
2023-03-16T15:03:14.140Z,26.39
2023-03-16T15:07:14.639Z,26.43
2023-03-16T15:11:14.611Z,26.43
2023-03-16T15:15:14.550Z,26.37
2023-03-16T15:19:14.685Z,26.36
2023-03-16T15:23:14.822Z,26.37
2023-03-16T15:27:14.989Z,26.36
2023-03-16T15:31:15.193Z,26.27
2023-03-16T15:35:15.645Z,26.25
2023-03-16T15:39:15.423Z,26.25
2023-03-16T15:43:15.552Z,26.17
2023-03-16T15:47:15.704Z,26.18
2023-03-16T15:51:15.792Z,26.15
2023-03-16T15:55:15.954Z,26.04
2023-03-16T15:59:16.152Z,26.03
2023-03-16T16:03:16.146Z,26.00
2023-03-16T16:07:16.185Z,25.96
2023-03-16T16:11:16.310Z,25.96
2023-03-16T16:15:16.385Z,26.03
2023-03-16T16:19:16.567Z,25.96
2023-03-16T16:23:16.627Z,25.89
2023-03-16T16:27:16.740Z,25.84
2023-03-16T16:31:16.807Z,25.75
2023-03-16T16:35:16.858Z,25.71
2023-03-16T16:39:16.854Z,25.79
2023-03-16T16:43:16.930Z,25.78
2023-03-16T16:47:17.065Z,25.93
2023-03-16T16:51:17.177Z,26.07
2023-03-16T16:55:17.353Z,26.13
2023-03-16T16:59:17.526Z,26.21
2023-03-16T17:03:17.747Z,26.29
2023-03-16T17:07:17.968Z,26.37
2023-03-16T17:11:17.919Z,26.46
2023-03-16T17:15:17.904Z,26.47
2023-03-16T17:19:17.882Z,26.55
2023-03-16T17:23:17.836Z,26.52
2023-03-16T17:27:17.786Z,26.57
2023-03-16T17:31:17.774Z,26.61
2023-03-16T17:35:17.716Z,26.62
2023-03-16T17:39:17.667Z,26.69
2023-03-16T17:43:17.621Z,26.72
2023-03-16T17:47:17.602Z,26.68
2023-03-16T17:51:17.557Z,26.66
2023-03-16T17:55:17.544Z,26.69
2023-03-16T17:59:17.559Z,26.73
2023-03-16T18:03:17.624Z,26.66
2023-03-16T18:07:17.442Z,26.70
2023-03-16T18:11:17.407Z,26.70
2023-03-16T18:15:17.375Z,26.64
2023-03-16T18:19:17.329Z,26.69
2023-03-16T18:23:17.278Z,26.66
2023-03-16T18:27:17.247Z,26.68
2023-03-16T18:31:17.400Z,26.71
2023-03-16T18:35:17.577Z,26.66
2023-03-16T18:39:17.699Z,26.64
2023-03-16T18:43:17.884Z,26.66
2023-03-16T18:47:18.066Z,26.66
2023-03-16T18:51:18.297Z,26.70
2023-03-16T18:55:18.546Z,26.69
2023-03-16T18:59:18.497Z,26.69
2023-03-16T19:03:18.463Z,26.71
2023-03-16T19:07:18.432Z,26.66
2023-03-16T19:11:18.371Z,26.67
2023-03-16T19:15:18.379Z,26.66
2023-03-16T19:19:18.314Z,26.60
2023-03-16T19:23:18.294Z,26.60
2023-03-16T19:27:18.271Z,26.60
2023-03-16T19:31:18.221Z,26.65
2023-03-16T19:35:18.186Z,26.60
2023-03-16T19:39:18.123Z,26.60
2023-03-16T19:43:18.100Z,26.59
2023-03-16T19:47:18.088Z,26.62
2023-03-16T19:51:18.064Z,26.55
2023-03-16T19:55:17.998Z,26.56
2023-03-16T19:59:17.990Z,26.54
2023-03-16T20:03:18.060Z,26.55
2023-03-16T20:07:17.911Z,26.57
2023-03-16T20:11:17.882Z,26.55
2023-03-16T20:15:17.835Z,26.55
2023-03-16T20:19:17.862Z,26.58
2023-03-16T20:23:17.780Z,26.56
2023-03-16T20:27:17.737Z,26.52
2023-03-16T20:31:17.730Z,26.59
2023-03-16T20:35:17.651Z,26.55
2023-03-16T20:39:17.616Z,26.55
2023-03-16T20:43:17.574Z,26.54
2023-03-16T20:47:17.571Z,26.47
2023-03-16T20:51:17.529Z,26.50
2023-03-16T20:55:17.477Z,26.48
2023-03-16T20:59:17.503Z,26.44
2023-03-16T21:03:17.589Z,26.45
2023-03-16T21:07:17.660Z,26.48
2023-03-16T21:11:17.750Z,26.39
2023-03-16T21:15:17.825Z,26.45
2023-03-16T21:19:17.960Z,26.43
2023-03-16T21:23:18.038Z,26.45
2023-03-16T21:27:18.147Z,26.39
2023-03-16T21:31:19.636Z,26.36
2023-03-16T21:35:18.403Z,26.39
2023-03-16T21:39:18.478Z,26.36
2023-03-16T21:43:18.593Z,26.35
2023-03-16T21:47:18.709Z,26.34
2023-03-16T21:51:18.871Z,26.34
2023-03-16T21:55:30.259Z,26.27
2023-03-16T21:59:20.195Z,26.32
2023-03-16T22:03:18.995Z,26.31
2023-03-16T22:07:18.902Z,26.32
2023-03-16T22:11:19.008Z,26.35
2023-03-16T22:15:19.191Z,26.35
2023-03-16T22:19:19.361Z,26.36
2023-03-16T22:23:19.539Z,26.30
2023-03-16T22:27:19.768Z,26.29
2023-03-16T22:31:20.029Z,26.26
2023-03-16T22:35:20.195Z,26.24
2023-03-16T22:39:20.375Z,26.25
2023-03-16T22:43:20.336Z,26.27
2023-03-16T22:47:20.310Z,26.24
2023-03-16T22:51:20.293Z,26.24
2023-03-16T22:55:20.271Z,26.24
2023-03-16T22:59:20.197Z,26.29
2023-03-16T23:03:20.177Z,26.28
2023-03-16T23:07:20.151Z,26.27
2023-03-16T23:11:20.111Z,26.30
2023-03-16T23:15:20.085Z,26.29
2023-03-16T23:19:24.529Z,26.30
2023-03-16T23:23:20.113Z,26.29
2023-03-16T23:27:20.126Z,26.23
2023-03-16T23:31:20.162Z,26.21
2023-03-16T23:35:20.290Z,26.23
2023-03-16T23:39:20.468Z,26.19
2023-03-16T23:43:20.557Z,26.21
2023-03-16T23:47:20.683Z,26.18
2023-03-16T23:51:20.735Z,26.21
2023-03-16T23:55:20.728Z,26.21
2023-03-16T23:59:20.739Z,26.22
